Tiempo atmosférico en la estación meteorológica de Agaete, Las Palmas (5 m.)



Fecha
DESCASC
Temp. máxima en grados centígrados (hora)
DESCASC
Temp. mínima en grados centígrados (hora)
DESCASC
Temp. media en grados centígrados
DESCASC
Racha de viento máxima en m/sg (hora)
DESCASC
Velocidad máxima media en intervalos de 10 minutos(hora)
DESCASC
Precipitaciones diarias en mm
DESCASC
Precipitaciones de 00:00 a 06:00 en mm
DESCASC
Precipitaciones de 06:00 a 12:00 en mm
DESCASC
Precipitaciones de 12:00 a 18:00 en mm
DESCASC
Precipitaciones de 18:00 a 24:00 en mm
DESCASC
18-02-2018 19 (12:20) 15.2 (05:40) 17.1 11.11 (10:20) 6.67 (11:00) 0 0 0 0 0
17-02-2018 19.5 (15:50) 15.6 (07:00) 17.6 10.28 (13:00) 6.67 (13:20) 0 0 0 0 0
16-02-2018 23.8 (16:10) 16.8 (07:30) 20.3 8.89 (18:30) 6.11 (14:50) 0 0 0 0 0
15-02-2018 21.2 (23:00) 16.1 (00:00) 18.7 6.94 (22:50) 4.72 (22:50) 0 0 0 0 0
14-02-2018 22.1 (16:40) 15.3 (00:00) 18.7 10.83 (22:10) 4.44 (23:20) 0 0 0 0 0
13-02-2018 21.3 (17:00) 15.2 (00:00) 18.2 7.22 (07:20) 3.61 (00:20) 0 0 0 0 0
12-02-2018 18.8 (13:50) 15.6 (00:00) 17.2 12.5 (12:10) 7.22 (13:40) 0 0 0 0 0
11-02-2018 18 (14:20) 15.5 (00:00) 16.8 13.61 (11:10) 6.67 (12:40) 0 0 0 0 0
10-02-2018 18.8 (16:40) 15.2 (00:00) 17 13.06 (22:00) 7.5 (21:30) 2.4 0.4 1 0.2 0.8
09-02-2018 17.9 (15:50) 13.9 (00:00) 15.9 14.72 (14:40) 8.33 (14:40) 1.2 0 0.4 0 0.8
08-02-2018 16.8 (13:00) 12.5 (00:00) 14.6 21.11 (02:40) 11.94 (00:50) 3.8 2.8 1 0 0
07-02-2018 17.8 (15:20) 13.9 (00:00) 15.8 16.67 (19:50) 11.11 (17:00) 3.4 0 0.8 0.4 2.2
06-02-2018 17.2 (12:20) 14 (00:00) 15.6 16.39 (06:30) 10.83 (06:40) 3.8 0 0.2 0 3.6
05-02-2018 18 (14:30) 14 (00:00) 16 11.67 (06:30) 8.61 (20:10) 2.6 0.2 2.4 0 0
04-02-2018 18.9 (14:50) 14.6 (00:00) 16.8 13.89 (01:50) 9.72 (19:30) 0.4 0.2 0.2 0 0
03-02-2018 17.5 (11:10) 14.9 (00:00) 16.2 15.28 (10:10) 9.17 (00:40) 1 0.2 0 0.6 0.2
02-02-2018 18 (15:30) 14 (00:00) 16 15 (10:50) 8.61 (15:40) 6.8 0 0.8 5.8 0.2
01-02-2018 18.1 (14:40) 13.7 (00:00) 15.9 16.39 (12:00) 8.89 (12:00) 6.6 0 3 0.6 3
31-01-2018 18.3 (10:20) 14.1 (00:00) 16.2 13.33 (16:40) 9.17 (19:00) 4 0 0.4 3.6 0
30-01-2018 17.2 (15:30) 13.1 (00:00) 15.2 9.72 (01:00) 7.5 (01:00) 8.2 0 8 0.2 0
29-01-2018 17 (16:20) 13 (00:00) 15 15.28 (10:50) 10 (10:00) 3.6 0 2.4 1.2 0
28-01-2018 17.6 (15:40) 14.1 (00:00) 15.9 15.28 (03:20) 9.44 (03:20) 2.2 0.6 1.6 0 0
27-01-2018 18.2 (13:20) 14.8 (00:00) 16.5 16.39 (12:10) 9.72 (12:20) 0 0 0 0 0
26-01-2018 19 (15:30) 15.4 (00:00) 17.2 15.28 (19:40) 8.61 (10:20) 1.2 0 0.8 0 0.4
25-01-2018 19.3 (12:50) 16.3 (00:00) 17.8 16.67 (05:10) 9.72 (11:10) 0 0 0 0 0
24-01-2018 20.9 (10:20) 16.5 (00:00) 18.7 18.33 (05:10) 10 (04:40) -- 0 -- 0 0
23-01-2018 21.7 (16:10) 16.8 (00:00) 19.3 13.33 (21:10) 8.61 (22:50) 0 0 0 0 0
22-01-2018 21.9 (14:00) 15.7 (00:00) 18.8 12.22 (17:00) 7.78 (17:10) 0 0 0 0 0

Gráficas

Temp. máximas Temp. mínimas Temp. medias Precipitaciones Rachas de viento máximas Velocidades máximas media en intervalos de 10 minutos

Datos horarios

Fecha y hora oficial Temperatura (ºC) Velocidad del viento (km/h) Dirección del viento Racha (km/h) Dirección de racha Precipitación (mm) Presión (hPa) Tendencia (hPa) Humedad (%)
2018-02-20 23:00:00 16.7 8 Nordeste 27 Nordeste 0 -- -- 71
2018-02-20 22:00:00 16.4 8 Nordeste 18 Nordeste 0 -- -- 72
2018-02-20 21:00:00 16.7 8 Nordeste 17 Nordeste 0 -- -- 73
2018-02-20 20:00:00 16.8 7 Este 19 Nordeste 0 -- -- 67
2018-02-20 19:00:00 17.5 7 Nordeste 30 Nordeste 0 -- -- 63
2018-02-20 18:00:00 18.6 14 Nordeste 27 Norte 0 -- -- 57
2018-02-20 17:00:00 18.5 15 Nordeste 27 Norte 0 -- -- 61
2018-02-20 16:00:00 19 15 Norte 30 Nordeste 0 -- -- 58
2018-02-20 15:00:00 19.2 11 Nordeste 31 Este 0 -- -- 56
2018-02-20 14:00:00 19.5 12 Nordeste 33 Norte 0 -- -- 52
2018-02-20 13:00:00 18.6 17 Norte 30 Norte 0 -- -- 58
2018-02-20 12:00:00 17.9 17 Norte 26 Nordeste 0 -- -- 61
2018-02-20 11:00:00 18.2 15 Nordeste 27 Nordeste 0 -- -- 62
2018-02-20 10:00:00 18.1 12 Nordeste 23 Nordeste 0 -- -- 63
2018-02-20 09:00:00 16.3 8 Nordeste 19 Nordeste 0 -- -- 69
2018-02-20 08:00:00 15.6 9 Nordeste 25 Nordeste 0 -- -- 74
2018-02-20 07:00:00 15.9 13 Nordeste 28 Nordeste 0 -- -- 72
2018-02-20 06:00:00 16.1 17 Nordeste 32 Nordeste 0 -- -- 73
2018-02-20 05:00:00 15.8 9 Este 17 Nordeste 0 -- -- 76
2018-02-20 04:00:00 15.6 8 Nordeste 15 Este 0 -- -- 74
2018-02-20 03:00:00 15.6 9 Este 17 Nordeste 0 -- -- 71
2018-02-20 02:00:00 16.2 8 Nordeste 21 Este 0 -- -- 70
2018-02-20 01:00:00 16.3 9 Nordeste 25 Nordeste 0 -- -- 73
2018-02-20 00:00:00 16.5 15 Nordeste 28 Nordeste 0 -- -- 72
2018-02-19 23:00:00 16 10 Nordeste 26 Nordeste 0 -- -- 77
2018-02-19 22:00:00 16.4 10 Nordeste 23 Nordeste 0 -- -- 76
2018-02-19 21:00:00 16.2 10 Nordeste 26 Nordeste 0 -- -- 78
2018-02-19 20:00:00 16.4 13 Norte 28 Norte 0 -- -- 78
2018-02-19 19:00:00 17.4 13 Nordeste 27 Nordeste 0 -- -- 67
2018-02-19 18:00:00 17.8 15 Nordeste 38 Nordeste 0 -- -- 65
2018-02-19 17:00:00 18.7 17 Nordeste 31 Nordeste 0 -- -- 61
2018-02-19 16:00:00 18.4 14 Nordeste 30 Nordeste 0 -- -- 63
2018-02-19 15:00:00 19.4 17 Nordeste 31 Este 0 -- -- 52
2018-02-19 14:00:00 19.7 16 Nordeste 30 Nordeste 0 -- -- 52
2018-02-19 13:00:00 18.6 16 Nordeste 31 Nordeste 0 -- -- 56
2018-02-19 12:00:00 18.4 16 Nordeste 28 Nordeste 0 -- -- 58
2018-02-19 11:00:00 18.6 17 Nordeste 31 Este 0 -- -- 58
2018-02-19 10:00:00 18 14 Nordeste 25 Nordeste 0 -- -- 62
2018-02-19 09:00:00 16.1 10 Este 19 Este 0 -- -- 63
2018-02-19 08:00:00 14.9 9 Este 19 Este 0 -- -- 68
2018-02-19 07:00:00 14.8 6 Este 23 Este 0 -- -- 71
2018-02-19 06:00:00 15.1 10 Este 17 Este 0 -- -- 67
2018-02-19 05:00:00 15.3 9 Nordeste 17 Este 0 -- -- 73
2018-02-19 04:00:00 15.5 8 Este 19 Sudeste 0 -- -- 70
2018-02-19 03:00:00 15 10 Este 21 Sudeste 0 -- -- 63
2018-02-19 02:00:00 15 8 Este 15 Este 0 -- -- 66
2018-02-19 01:00:00 15.3 7 Este 17 Nordeste 0 -- -- 70
2018-02-19 00:00:00 15.8 9 Nordeste 21 Este 0 -- -- 68
2018-02-18 23:00:00 15.8 7 Este 19 Este 0 -- -- 63
2018-02-18 22:00:00 15.8 11 Nordeste 21 Este 0 -- -- 66
2018-02-18 21:00:00 16.6 11 Este 23 Nordeste 0 -- -- 62
2018-02-18 20:00:00 16.4 16 Nordeste 27 Nordeste 0 -- -- 68
2018-02-18 19:00:00 16.9 15 Nordeste 26 Este 0 -- -- 67
2018-02-18 18:00:00 18.3 13 Nordeste 24 Nordeste 0 -- -- 61
2018-02-18 17:00:00 17.8 13 Nordeste 26 Nordeste 0 -- -- 63
2018-02-18 16:00:00 18.5 13 Nordeste 23 Nordeste 0 -- -- 61
2018-02-18 15:00:00 18.4 15 Nordeste 28 Nordeste 0 -- -- 60
2018-02-18 14:00:00 18.7 19 Nordeste 34 Nordeste 0 -- -- 59
2018-02-18 13:00:00 18.9 19 Nordeste 33 Nordeste 0 -- -- 58
2018-02-18 12:00:00 18.6 20 Nordeste 35 Nordeste 0 -- -- 59
2018-02-18 11:00:00 18.1 24 Nordeste 40 Nordeste 0 -- -- 61
2018-02-18 10:00:00 17.4 22 Nordeste 37 Nordeste 0 -- -- 64
2018-02-18 09:00:00 16.5 18 Nordeste 30 Norte 0 -- -- 68
2018-02-18 08:00:00 15.6 14 Nordeste 27 Este 0 -- -- 66
2018-02-18 07:00:00 15.8 12 Este 27 Sudeste 0 -- -- 59
2018-02-18 06:00:00 15.8 11 Nordeste 27 Este 0 -- -- 62
2018-02-18 05:00:00 15.6 13 Este 26 Este 0 -- -- 57
2018-02-18 04:00:00 15.4 12 Este 26 Este 0 -- -- 60
2018-02-18 03:00:00 15.9 10 Este 24 Este 0 -- -- 63
2018-02-18 02:00:00 15.9 10 Nordeste 26 Este 0 -- -- 69
2018-02-18 01:00:00 16 12 Este 23 Este 0 -- -- 69
2018-02-18 00:00:00 16.3 10 Nordeste 27 Este 0 -- -- 65
2018-02-17 23:00:00 16.1 10 Nordeste 24 Nordeste 0 -- -- 69
2018-02-17 22:00:00 16.3 13 Nordeste 23 Nordeste 0 -- -- 72
2018-02-17 21:00:00 16.4 10 Nordeste 25 Nordeste 0 -- -- 68
2018-02-17 20:00:00 16.6 15 Nordeste 30 Nordeste 0 -- -- 70
2018-02-17 19:00:00 17.2 16 Nordeste 33 Nordeste 0 -- -- 69
2018-02-17 18:00:00 18.3 18 Nordeste 29 Nordeste 0 -- -- 62
2018-02-17 17:00:00 19.1 16 Nordeste 34 Nordeste 0 -- -- 61
2018-02-17 16:00:00 19 21 Nordeste 33 Norte 0 -- -- 61
2018-02-17 15:00:00 19.2 21 Norte 35 Norte 0 -- -- 64
2018-02-17 14:00:00 19.1 19 Norte 36 Nordeste 0 -- -- 64
2018-02-17 13:00:00 18.9 22 Norte 37 Norte 0 -- -- 66
2018-02-17 12:00:00 18.8 22 Norte 32 Norte 0 -- -- 68
2018-02-17 11:00:00 18.5 20 Norte 34 Norte 0 -- -- 71
2018-02-17 10:00:00 18.2 14 Norte 24 Nordeste 0 -- -- 71
2018-02-17 09:00:00 17.5 8 Norte 17 Nordeste 0 -- -- 74
2018-02-17 08:00:00 15.8 9 Nordeste 18 Nordeste 0 -- -- 79
2018-02-17 07:00:00 15.6 12 Nordeste 22 Nordeste 0 -- -- 80
2018-02-17 06:00:00 16.5 15 Nordeste 24 Norte 0 -- -- 78
2018-02-17 05:00:00 16 14 Nordeste 23 Nordeste 0 -- -- 79
2018-02-17 04:00:00 16.6 16 Nordeste 27 Nordeste 0 -- -- 80
2018-02-17 03:00:00 17 15 Nordeste 24 Nordeste 0 -- -- 76
2018-02-17 02:00:00 16.6 14 Nordeste 24 Nordeste 0 -- -- 74
2018-02-17 01:00:00 16.7 13 Nordeste 22 Norte 0 -- -- 73
2018-02-17 00:00:00 18.3 13 Nordeste 19 Nordeste 0 -- -- 42
2018-02-16 23:00:00 18.6 8 Este 22 Este 0 -- -- 40
2018-02-16 22:00:00 18.8 9 Este 19 Nordeste 0 -- -- 41
2018-02-16 21:00:00 18.8 10 Este 22 Este 0 -- -- 43
2018-02-16 20:00:00 19 8 Nordeste 28 Nordeste 0 -- -- 47
2018-02-16 19:00:00 19.8 17 Nordeste 32 Nordeste 0 -- -- 46
2018-02-16 18:00:00 22.1 14 Nordeste 26 Nordeste 0 -- -- 40
2018-02-16 17:00:00 23.6 13 Nordeste 21 Este 0 -- -- 32
2018-02-16 16:00:00 23.7 13 Nordeste 27 Nordeste 0 -- -- 31
2018-02-16 15:00:00 21.2 18 Norte 28 Norte 0 -- -- 53
2018-02-16 14:00:00 20.5 18 Norte 28 Norte 0 -- -- 66
2018-02-16 13:00:00 20.3 13 Norte 24 Norte 0 -- -- 61
2018-02-16 12:00:00 19.6 9 Noroeste 12 Noroeste 0 -- -- 71
2018-02-16 11:00:00 20.1 7 Norte 9 Noroeste 0 -- -- 67
2018-02-16 10:00:00 19.5 5 Este 10 Este 0 -- -- 63
2018-02-16 09:00:00 18 6 Este 14 Este 0 -- -- 58
2018-02-16 08:00:00 16.8 10 Este 19 Este 0 -- -- 50
2018-02-16 07:00:00 18.1 6 Sudeste 13 Sur 0 -- -- 64
2018-02-16 06:00:00 18.4 8 Sudeste 15 Este 0 -- -- 60
2018-02-16 05:00:00 17.8 6 Sudeste 20 Sudoeste 0 -- -- 64
2018-02-16 04:00:00 18.4 8 Sur 14 Sudeste 0 -- -- 59
2018-02-16 03:00:00 18.6 4 Sudeste 15 Sur 0 -- -- 53
2018-02-16 02:00:00 19.2 6 Nordeste 12 Este 0 -- -- 37
2018-02-16 01:00:00 19.3 6 Este 15 Nordeste 0 -- -- 35
2018-02-16 00:00:00 20.1 11 Este 21 Este 0 -- -- 32
2018-02-15 23:00:00 21.2 15 Nordeste 25 Nordeste 0 -- -- 29
2018-02-15 22:00:00 18.8 5 Nordeste 13 Sudeste 0 -- -- 48
2018-02-15 21:00:00 18.7 7 Sur 10 Este 0 -- -- 70
2018-02-15 20:00:00 18.7 7 Este 13 Sudoeste 0 -- -- 61
2018-02-15 19:00:00 19.1 5 Sudeste 15 Sudeste 0 -- -- 71
2018-02-15 18:00:00 19.2 5 Nordeste 18 Este 0 -- -- 65
2018-02-15 17:00:00 19.4 6 Sur 15 Este 0 -- -- 72
2018-02-15 16:00:00 20.5 7 Sudeste 14 Sudeste 0 -- -- 60
2018-02-15 15:00:00 19.7 3 Noroeste 8 Sudoeste 0 -- -- 61
2018-02-15 14:00:00 19.4 5 Sur 8 Sur 0 -- -- 58
2018-02-15 13:00:00 19.6 5 Sur 8 Sur 0 -- -- 62
2018-02-15 12:00:00 19.1 2 Nordeste 9 Sudoeste 0 -- -- 52
2018-02-15 11:00:00 18.7 6 Sur 9 Sur 0 -- -- 60
2018-02-15 10:00:00 19.1 4 Sur 14 Este 0 -- -- 53
2018-02-15 09:00:00 17.4 10 Este 14 Este 0 -- -- 39
2018-02-15 08:00:00 16.6 8 Este 13 Este 0 -- -- 41
2018-02-15 07:00:00 16.9 7 Este 10 Este 0 -- -- 42
2018-02-15 06:00:00 17.1 4 Sur 9 Sur 0 -- -- 52
2018-02-15 05:00:00 16.5 3 Sudeste 5 Sudeste 0 -- -- 50
2018-02-15 04:00:00 16.4 2 Sudeste 7 Este 0 -- -- 41
2018-02-15 03:00:00 16.8 5 Este 9 Este 0 -- -- 40
2018-02-15 02:00:00 16.9 3 Sudeste 10 Nordeste 0 -- -- 51
2018-02-15 01:00:00 16.6 4 Este 16 Este 0 -- -- 56
2018-02-15 00:00:00 17.8 4 Este 36 Este 0 -- -- 38
2018-02-14 23:00:00 17.7 14 Este 39 Este 0 -- -- 38
2018-02-14 22:00:00 17.9 13 Este 26 Nordeste 0 -- -- 38
2018-02-14 21:00:00 17.8 8 Este 14 Este 0 -- -- 55
2018-02-14 20:00:00 18.2 6 Este 12 Este 0 -- -- 63
2018-02-14 19:00:00 18.8 4 Este 10 Sudeste 0 -- -- 66
2018-02-14 18:00:00 21.4 8 Sur 16 Sur 0 -- -- 55
2018-02-14 17:00:00 21.5 12 Sur 16 Sur 0 -- -- 57
2018-02-14 16:00:00 21.3 6 Sudoeste 14 Sudoeste 0 -- -- 59
2018-02-14 15:00:00 21.4 6 Sudoeste 17 Sur 0 -- -- 60
2018-02-14 14:00:00 20.8 9 Sur 14 Sur 0 -- -- 57
2018-02-14 13:00:00 19.7 4 Sudoeste 6 Sudoeste 0 -- -- 64
2018-02-14 12:00:00 19.7 3 Sudoeste 10 Sur 0 -- -- 57
2018-02-14 11:00:00 19.7 7 Sur 11 Sudeste 0 -- -- 54
2018-02-14 10:00:00 19.1 9 Sur 13 Este 0 -- -- 47
2018-02-14 09:00:00 17.3 9 Este 14 Este 0 -- -- 40
2018-02-14 08:00:00 16 4 Este 19 Sudeste 0 -- -- 42
2018-02-14 07:00:00 16.5 12 Este 20 Este 0 -- -- 40
2018-02-14 06:00:00 15.8 11 Este 22 Este 0 -- -- 54
2018-02-14 05:00:00 16.4 9 Sudeste 19 Sudeste 0 -- -- 49
2018-02-14 04:00:00 15.7 6 Sudeste 19 Este 0 -- -- 63
2018-02-14 03:00:00 15.5 10 Sudeste 21 Sudeste 0 -- -- 68
2018-02-14 02:00:00 15.5 9 Este 25 Nordeste 0 -- -- 74
2018-02-14 01:00:00 15.8 9 Nordeste 24 Este 0 -- -- 78
2018-02-14 00:00:00 15.9 13 Nordeste 23 Nordeste 0 -- -- 77
2018-02-13 23:00:00 16.2 11 Este 17 Este 0 -- -- 73
2018-02-13 22:00:00 16.5 12 Este 15 Este 0 -- -- 67
2018-02-13 21:00:00 17.4 8 Sudeste 13 Este 0 -- -- 73
2018-02-13 20:00:00 17.7 9 Este 13 Este 0 -- -- 74
2018-02-13 19:00:00 18.4 3 Este 14 Este 0 -- -- 70
2018-02-13 18:00:00 18.9 8 Este 15 Nordeste 0 -- -- 68
2018-02-13 17:00:00 21.3 6 Sudoeste 11 Sur 0 -- -- 62
2018-02-13 16:00:00 20.1 9 Sudoeste 14 Sudoeste 0 -- -- 64
2018-02-13 15:00:00 19.8 11 Sudoeste 15 Sur 0 -- -- 64
2018-02-13 14:00:00 19.1 11 Sudoeste 14 Sudoeste 0 -- -- 63
2018-02-13 13:00:00 19.4 7 Sudoeste 10 Sudoeste 0 -- -- 61
2018-02-13 12:00:00 19.1 7 Sudoeste 10 Sudoeste 0 -- -- 63
2018-02-13 11:00:00 18.1 7 Sudoeste 10 Sudoeste 0 -- -- 62
2018-02-13 10:00:00 17.9 5 Sur 14 Sudeste 0 -- -- 59
2018-02-13 09:00:00 17.6 5 Sudeste 19 Nordeste 0 -- -- 56
2018-02-13 08:00:00 15.7 9 Este 26 Nordeste 0 -- -- 66
2018-02-13 07:00:00 15.8 9 Este 20 Nordeste 0 -- -- 73
2018-02-13 06:00:00 15.6 9 Sudeste 18 Este 0 -- -- 72
2018-02-13 05:00:00 15.7 5 Este 21 Nordeste 0 -- -- 68
2018-02-13 04:00:00 15.7 7 Este 18 Sudeste 0 -- -- 69
2018-02-13 03:00:00 16.2 10 Este 18 Este 0 -- -- 61
2018-02-13 02:00:00 16.5 8 Este 18 Este 0 -- -- 72
2018-02-13 01:00:00 16.5 9 Nordeste 21 Nordeste 0 -- -- 72
2018-02-13 00:00:00 16.8 13 Nordeste 27 Nordeste 0 -- -- 71
2018-02-12 23:00:00 16.9 12 Norte 21 Norte 0 -- -- 73
2018-02-12 22:00:00 16.8 13 Nordeste 24 Nordeste 0 -- -- 71
2018-02-12 21:00:00 16.8 12 Nordeste 23 Nordeste 0 -- -- 70
2018-02-12 20:00:00 16.9 13 Nordeste 25 Nordeste 0 -- -- 72
2018-02-12 19:00:00 16.9 17 Nordeste 26 Nordeste 0 -- -- 71
2018-02-12 18:00:00 17.3 15 Nordeste 36 Nordeste 0 -- -- 67
2018-02-12 17:00:00 17.6 17 Nordeste 34 Nordeste 0 -- -- 66
2018-02-12 16:00:00 18.3 21 Nordeste 38 Nordeste 0 -- -- 59
2018-02-12 15:00:00 18.3 19 Nordeste 41 Nordeste 0 -- -- 59
2018-02-12 14:00:00 18.3 23 Nordeste 41 Nordeste 0 -- -- 58
2018-02-12 13:00:00 18.4 22 Nordeste 45 Nordeste 0 -- -- 57
2018-02-12 12:00:00 18 22 Nordeste 40 Nordeste 0 -- -- 60
2018-02-12 11:00:00 17.3 20 Nordeste 40 Nordeste 0 -- -- 60
2018-02-12 10:00:00 16.7 19 Nordeste 31 Nordeste 0 -- -- 64
2018-02-12 09:00:00 16.3 17 Nordeste 33 Nordeste 0 -- -- 65
2018-02-12 08:00:00 15.6 12 Nordeste 24 Nordeste 0 -- -- 68
2018-02-12 07:00:00 15.8 16 Nordeste 35 Nordeste 0 -- -- 68
2018-02-12 06:00:00 16.3 16 Nordeste 29 Nordeste 0 -- -- 63
2018-02-12 05:00:00 16.1 16 Nordeste 30 Nordeste 0 -- -- 64
2018-02-12 04:00:00 16.1 16 Nordeste 32 Nordeste 0 -- -- 65
2018-02-12 03:00:00 15.9 12 Nordeste 32 Nordeste 0 -- -- 69
2018-02-12 02:00:00 16 13 Nordeste 30 Nordeste 0 -- -- 67
2018-02-12 01:00:00 16.1 16 Nordeste 28 Nordeste 0 -- -- 64
2018-02-12 00:00:00 15.7 17 Nordeste 29 Nordeste 0 -- -- 64
2018-02-11 23:00:00 16.1 17 Nordeste 31 Nordeste 0 -- -- 67
2018-02-11 22:00:00 16.4 14 Nordeste 27 Nordeste 0 -- -- 64
2018-02-11 21:00:00 16 12 Nordeste 30 Nordeste 0 -- -- 64
2018-02-11 20:00:00 15.9 18 Nordeste 32 Nordeste 0 -- -- 65
2018-02-11 19:00:00 16.5 17 Nordeste 36 Nordeste 0 -- -- 61
2018-02-11 18:00:00 16.8 21 Nordeste 37 Nordeste 0 -- -- 64
2018-02-11 17:00:00 17.2 23 Nordeste 38 Nordeste 0 -- -- 64
2018-02-11 16:00:00 17.5 21 Nordeste 35 Nordeste 0 -- -- 57
2018-02-11 15:00:00 16.5 21 Nordeste 41 Nordeste 0 -- -- 70
2018-02-11 14:00:00 17.8 17 Nordeste 36 Nordeste 0 -- -- 57
2018-02-11 13:00:00 17 21 Nordeste 40 Nordeste 0 -- -- 62
2018-02-11 12:00:00 16.4 19 Nordeste 49 Nordeste 0 -- -- 67
2018-02-11 11:00:00 16.9 15 Nordeste 36 Este 0 -- -- 58
2018-02-11 10:00:00 16.5 21 Nordeste 37 Nordeste 0 -- -- 60
2018-02-11 09:00:00 16.3 17 Nordeste 35 Nordeste 0 -- -- 60
2018-02-11 08:00:00 16 18 Nordeste 28 Nordeste 0 -- -- 62
2018-02-11 07:00:00 15.7 15 Nordeste 39 Nordeste 0 -- -- 65
2018-02-11 06:00:00 15.5 17 Nordeste 40 Nordeste 0 -- -- 75
2018-02-11 05:00:00 15.8 13 Nordeste 40 Nordeste 0 -- -- 62
2018-02-11 04:00:00 16.2 24 Nordeste 42 Nordeste 0 -- -- 63
2018-02-11 03:00:00 16 21 Nordeste 42 Nordeste 0 -- -- 66
2018-02-11 02:00:00 15.7 22 Nordeste 37 Nordeste 0 -- -- 69
2018-02-11 01:00:00 16.2 18 Nordeste 35 Nordeste 0 -- -- 67
2018-02-11 00:00:00 16.5 18 Nordeste 35 Nordeste 0 -- -- 72
2018-02-10 23:00:00 16.6 21 Nordeste 42 Nordeste 0 -- -- 73
2018-02-10 22:00:00 16.6 26 Nordeste 47 Nordeste 0.8 -- -- 75
2018-02-10 21:00:00 16.8 20 Nordeste 44 Nordeste 0 -- -- 76
2018-02-10 20:00:00 17 21 Nordeste 38 Nordeste 0 -- -- 77
2018-02-10 19:00:00 17.1 19 Nordeste 35 Nordeste 0 -- -- 77
2018-02-10 18:00:00 17.8 18 Nordeste 38 Este 0 -- -- 74
2018-02-10 17:00:00 18.4 18 Nordeste 35 Norte 0 -- -- 70
2018-02-10 16:00:00 18.7 20 Norte 31 Norte 0 -- -- 70
2018-02-10 15:00:00 18.7 17 Nordeste 32 Norte 0 -- -- 66
2018-02-10 14:00:00 18 18 Norte 35 Nordeste 0.2 -- -- 70
2018-02-10 13:00:00 18.3 19 Norte 35 Norte 0 -- -- 72
2018-02-10 12:00:00 18.3 18 Nordeste 35 Nordeste 0 -- -- 70
2018-02-10 11:00:00 16.4 19 Nordeste 38 Nordeste 0.4 -- -- 76
2018-02-10 10:00:00 16.7 22 Nordeste 36 Nordeste 0 -- -- 72
2018-02-10 09:00:00 16 18 Nordeste 37 Nordeste 0.4 -- -- 75
2018-02-10 08:00:00 15.9 18 Nordeste 30 Nordeste 0.2 -- -- 75
2018-02-10 07:00:00 15.5 14 Nordeste 35 Nordeste 0 -- -- 76
2018-02-10 06:00:00 15.7 14 Nordeste 32 Nordeste 0.4 -- -- 78
2018-02-10 05:00:00 15.6 10 Nordeste 29 Nordeste 0 -- -- 77
2018-02-10 04:00:00 16 16 Nordeste 32 Nordeste 0 -- -- 75
2018-02-10 03:00:00 15.3 12 Nordeste 26 Nordeste 0 -- -- 78
2018-02-10 02:00:00 15.4 10 Nordeste 22 Nordeste 0 -- -- 78
2018-02-10 01:00:00 15.8 17 Nordeste 35 Nordeste 0 -- -- 75
2018-02-10 00:00:00 15.7 20 Nordeste 48 Nordeste 0 -- -- 72
2018-02-09 23:00:00 15.2 20 Nordeste 38 Nordeste 0.8 -- -- 80
2018-02-09 22:00:00 16.2 19 Nordeste 35 Nordeste 0 -- -- 71
2018-02-09 21:00:00 16.3 16 Nordeste 41 Nordeste 0 -- -- 67
2018-02-09 20:00:00 16.3 18 Nordeste 34 Nordeste 0 -- -- 68
2018-02-09 19:00:00 16.1 17 Nordeste 37 Nordeste 0 -- -- 69
2018-02-09 18:00:00 16.8 23 Nordeste 44 Nordeste 0 -- -- 68
2018-02-09 17:00:00 16.8 25 Nordeste 44 Nordeste 0 -- -- 67
2018-02-09 16:00:00 17.5 27 Nordeste 47 Nordeste 0 -- -- 60
2018-02-09 15:00:00 17.4 28 Nordeste 53 Nordeste 0 -- -- 62
2018-02-09 14:00:00 17.6 21 Nordeste 44 Nordeste 0 -- -- 62
2018-02-09 13:00:00 17.5 21 Nordeste 47 Nordeste 0 -- -- 61
2018-02-09 12:00:00 17.4 21 Nordeste 44 Nordeste 0 -- -- 56
2018-02-09 11:00:00 16.1 20 Nordeste 45 Nordeste 0 -- -- 67
2018-02-09 10:00:00 15.6 17 Nordeste 43 Nordeste 0 -- -- 70
2018-02-09 09:00:00 15 20 Nordeste 46 Nordeste 0.2 -- -- 69
2018-02-09 08:00:00 15.4 21 Nordeste 44 Nordeste 0 -- -- 65
2018-02-09 07:00:00 14.6 25 Nordeste 49 Norte 0.2 -- -- 73
2018-02-09 06:00:00 15.4 22 Nordeste 42 Nordeste 0 -- -- 63
2018-02-09 05:00:00 15.4 23 Nordeste 42 Nordeste 0 -- -- 62
2018-02-09 04:00:00 15.5 24 Nordeste 49 Nordeste 0 -- -- 57
2018-02-09 03:00:00 14.2 19 Nordeste 42 Nordeste 0 -- -- 74
2018-02-09 02:00:00 14.1 18 Nordeste 37 Nordeste 0 -- -- 75
2018-02-09 01:00:00 14.6 14 Nordeste 34 Nordeste 0 -- -- 65
2018-02-09 00:00:00 15.1 20 Nordeste 40 Nordeste 0 -- -- 61
2018-02-08 23:00:00 14.9 20 Nordeste 39 Nordeste 0 -- -- 65
2018-02-08 22:00:00 15.3 23 Nordeste 46 Nordeste 0 -- -- 59
2018-02-08 21:00:00 15.4 23 Nordeste 41 Nordeste 0 -- -- 59
2018-02-08 20:00:00 15.4 23 Nordeste 40 Nordeste 0 -- -- 55
2018-02-08 19:00:00 14.6 22 Nordeste 44 Nordeste 0 -- -- 67
2018-02-08 18:00:00 15.7 24 Nordeste 48 Nordeste 0 -- -- 55
2018-02-08 17:00:00 16.4 23 Nordeste 52 Nordeste 0 -- -- 53
2018-02-08 16:00:00 16.1 24 Nordeste 42 Nordeste 0 -- -- 55
2018-02-08 15:00:00 15.6 31 Norte 59 Norte 0 -- -- 64
2018-02-08 14:00:00 16.5 28 Nordeste 54 Nordeste 0 -- -- 49
2018-02-08 13:00:00 16.8 28 Norte 50 Nordeste 0 -- -- 49
2018-02-08 12:00:00 15.6 26 Nordeste 45 Nordeste 0 -- -- 58
2018-02-08 11:00:00 15.6 24 Nordeste 57 Nordeste 0 -- -- 57
2018-02-08 10:00:00 15.1 24 Nordeste 50 Nordeste 0 -- -- 59
2018-02-08 09:00:00 13.2 23 Nordeste 47 Nordeste 1 -- -- 74
2018-02-08 08:00:00 13.1 19 Nordeste 58 Norte 0 -- -- 72
2018-02-08 07:00:00 13 17 Nordeste 44 Norte 0 -- -- 71
2018-02-08 06:00:00 14.4 30 Norte 53 Norte 0 -- -- 56
2018-02-08 05:00:00 14.5 26 Norte 54 Norte 0.2 -- -- 62
2018-02-08 04:00:00 14 17 Nordeste 40 Norte 0 -- -- 62
2018-02-08 03:00:00 13.5 33 Norte 76 Norte 2.6 -- -- 75
2018-02-08 02:00:00 14.1 35 Norte 63 Norte 0 -- -- 73
2018-02-08 01:00:00 13.1 27 Norte 63 Norte 0 -- -- 73
2018-02-08 00:00:00 14.7 17 Nordeste 49 Norte 0 -- -- 62
2018-02-07 23:00:00 15.5 30 Norte 55 Norte 0 -- -- 66
2018-02-07 22:00:00 15.7 29 Norte 47 Norte 0 -- -- 64
2018-02-07 21:00:00 14.8 19 Nordeste 49 Norte 0 -- -- 70
2018-02-07 20:00:00 14.7 35 Norte 60 Norte 2.2 -- -- 78
2018-02-07 19:00:00 14 20 Norte 43 Norte 0 -- -- 77
2018-02-07 18:00:00 15.2 32 Norte 49 Norte 0.4 -- -- 79
2018-02-07 17:00:00 16.2 40 Norte 53 Norte 0 -- -- 76
2018-02-07 16:00:00 15.7 35 Norte 47 Norte 0 -- -- 77
2018-02-07 15:00:00 17 22 Noroeste 37 Noroeste 0 -- -- 69
2018-02-07 14:00:00 17.2 14 Oeste 36 Noroeste 0 -- -- 69
2018-02-07 13:00:00 17.3 17 Noroeste 24 Norte 0 -- -- 65
2018-02-07 12:00:00 17 21 Noroeste 31 Noroeste 0 -- -- 67
2018-02-07 11:00:00 17 16 Norte 22 Noroeste 0 -- -- 65
2018-02-07 10:00:00 15 10 Sudeste 42 Norte 0.4 -- -- 71
2018-02-07 09:00:00 15.5 9 Nordeste 29 Nordeste 0.4 -- -- 69
2018-02-07 08:00:00 15.2 9 Nordeste 19 Este 0 -- -- 68
2018-02-07 07:00:00 14.7 13 Este 23 Este 0 -- -- 72
2018-02-07 06:00:00 14 14 Nordeste 39 Nordeste 0 -- -- 73
2018-02-07 05:00:00 15 7 Nordeste 24 Nordeste 0 -- -- 69
2018-02-07 04:00:00 15.6 15 Nordeste 27 Nordeste 0 -- -- 64
2018-02-07 03:00:00 14.9 8 Nordeste 27 Nordeste 0 -- -- 72
2018-02-07 02:00:00 15.2 16 Nordeste 31 Nordeste 0 -- -- 68
2018-02-07 01:00:00 14.9 10 Este 22 Este 0 -- -- 73
2018-02-07 00:00:00 14 13 Este 47 Nordeste 3.6 -- -- 80
2018-02-06 23:00:00 15.3 14 Nordeste 24 Nordeste 0 -- -- 71
2018-02-06 22:00:00 14.3 10 Este 41 Norte 0 -- -- 76
2018-02-06 21:00:00 15.8 15 Nordeste 31 Nordeste 0 -- -- 64
2018-02-06 20:00:00 15.8 18 Nordeste 32 Nordeste 0 -- -- 58
2018-02-06 19:00:00 15.9 13 Nordeste 45 Nordeste 0 -- -- 62
2018-02-06 18:00:00 17 19 Nordeste 30 Nordeste 0 -- -- 55
2018-02-06 17:00:00 16.4 14 Nordeste 35 Este 0 -- -- 62
2018-02-06 16:00:00 15.9 24 Nordeste 48 Norte 0 -- -- 64
2018-02-06 15:00:00 16.9 19 Norte 34 Nordeste 0 -- -- 64
2018-02-06 14:00:00 16.6 19 Nordeste 44 Norte 0 -- -- 57
2018-02-06 13:00:00 16.6 13 Nordeste 45 Nordeste 0 -- -- 54
2018-02-06 12:00:00 16.7 19 Nordeste 37 Nordeste 0.2 -- -- 60
2018-02-06 11:00:00 16 18 Nordeste 35 Norte 0 -- -- 64
2018-02-06 10:00:00 16.2 18 Nordeste 33 Nordeste 0 -- -- 67
2018-02-06 09:00:00 15.9 15 Nordeste 42 Nordeste 0 -- -- 61
2018-02-06 08:00:00 15.6 22 Norte 40 Norte 0 -- -- 68
2018-02-06 07:00:00 14.3 15 Nordeste 59 Norte 0 -- -- 73
2018-02-06 06:00:00 15.5 11 Nordeste 23 Nordeste 0 -- -- 64
2018-02-06 05:00:00 15.8 20 Norte 44 Norte 0 -- -- 70
2018-02-06 04:00:00 15.4 14 Nordeste 31 Norte 0 -- -- 70
2018-02-06 03:00:00 14.9 13 Nordeste 47 Norte 0 -- -- 68
2018-02-06 02:00:00 16 14 Nordeste 31 Norte 0 -- -- 65
2018-02-06 01:00:00 15.9 14 Nordeste 27 Norte 0 -- -- 65
2018-02-06 00:00:00 16 10 Nordeste 23 Nordeste 0 -- -- 63
2018-02-05 23:00:00 15.3 9 Este 18 Nordeste 0 -- -- 64
2018-02-05 22:00:00 15.6 9 Nordeste 19 Nordeste 0 -- -- 61
2018-02-05 21:00:00 15.4 7 Nordeste 41 Noroeste 0 -- -- 66
2018-02-05 20:00:00 16.3 28 Norte 39 Noroeste 0 -- -- 73
2018-02-05 19:00:00 16.5 14 Norte 37 Norte 0 -- -- 55
2018-02-05 18:00:00 17.3 20 Norte 29 Norte 0 -- -- 55
2018-02-05 17:00:00 17.2 24 Norte 37 Norte 0 -- -- 58
2018-02-05 16:00:00 17.7 18 Norte 29 Norte 0 -- -- 58
2018-02-05 15:00:00 17.5 18 Norte 30 Norte 0 -- -- 55
2018-02-05 14:00:00 17.4 17 Norte 35 Norte 0 -- -- 57
2018-02-05 13:00:00 17.4 18 Norte 35 Norte 0 -- -- 56
2018-02-05 12:00:00 17.8 18 Norte 32 Norte 0 -- -- 52
2018-02-05 11:00:00 17.1 16 Norte 26 Nordeste 0 -- -- 58
2018-02-05 10:00:00 16.5 15 Nordeste 29 Norte 0 -- -- 58
2018-02-05 09:00:00 15.1 17 Nordeste 36 Norte 0 -- -- 72
2018-02-05 08:00:00 14.6 11 Este 28 Norte 1 -- -- 82
2018-02-05 07:00:00 14.3 9 Este 42 Norte 1.4 -- -- 83
2018-02-05 06:00:00 14.4 9 Este 39 Nordeste 0 -- -- 84
2018-02-05 05:00:00 15.7 21 Nordeste 39 Nordeste 0.2 -- -- 79
2018-02-05 04:00:00 16.6 11 Nordeste 36 Norte 0 -- -- 66
2018-02-05 03:00:00 17.1 21 Norte 36 Norte 0 -- -- 67
2018-02-05 02:00:00 16.9 13 Norte 32 Norte 0 -- -- 68
2018-02-05 01:00:00 17.1 22 Norte 30 Norte 0 -- -- 64
2018-02-05 00:00:00 16.9 13 Norte 33 Norte 0 -- -- 65
2018-02-04 23:00:00 16.4 11 Nordeste 27 Norte 0 -- -- 68
2018-02-04 22:00:00 16.4 9 Este 25 Este 0 -- -- 74
2018-02-04 21:00:00 16.4 11 Este 28 Sudeste 0 -- -- 75
2018-02-04 20:00:00 15 13 Este 45 Norte 0 -- -- 81
2018-02-04 19:00:00 16.5 14 Nordeste 32 Norte 0 -- -- 78
2018-02-04 18:00:00 17.6 10 Nordeste 25 Norte 0 -- -- 65
2018-02-04 17:00:00 17.9 17 Nordeste 32 Nordeste 0 -- -- 65
2018-02-04 16:00:00 18.2 15 Nordeste 30 Nordeste 0 -- -- 57
2018-02-04 15:00:00 18.6 14 Nordeste 29 Este 0 -- -- 53
2018-02-04 14:00:00 18.2 15 Nordeste 33 Nordeste 0 -- -- 56
2018-02-04 13:00:00 17.4 17 Nordeste 33 Nordeste 0 -- -- 62
2018-02-04 12:00:00 17.5 17 Nordeste 30 Nordeste 0.2 -- -- 62
2018-02-04 11:00:00 15.9 10 Nordeste 26 Este 0 -- -- 73
2018-02-04 10:00:00 15.9 17 Nordeste 29 Nordeste 0 -- -- 68
2018-02-04 09:00:00 16.6 19 Nordeste 33 Nordeste 0 -- -- 52
2018-02-04 08:00:00 16.2 15 Nordeste 36 Nordeste 0 -- -- 55
2018-02-04 07:00:00 16.1 18 Nordeste 39 Nordeste 0 -- -- 59
2018-02-04 06:00:00 16.1 24 Nordeste 39 Nordeste 0 -- -- 59
2018-02-04 05:00:00 16.1 21 Nordeste 35 Nordeste 0 -- -- 55
2018-02-04 04:00:00 15.8 15 Este 31 Nordeste 0.2 -- -- 61
2018-02-04 03:00:00 15.2 17 Nordeste 30 Nordeste 0 -- -- 71
2018-02-04 02:00:00 16 20 Nordeste 50 Este 0 -- -- 59
2018-02-04 01:00:00 15.8 18 Nordeste 40 Norte 0 -- -- 69
2018-02-04 00:00:00 15.4 21 Nordeste 47 Nordeste 0.2 -- -- 75
2018-02-03 23:00:00 16.5 22 Nordeste 40 Nordeste 0 -- -- 61
2018-02-03 22:00:00 16.7 22 Nordeste 43 Nordeste 0 -- -- 58
2018-02-03 21:00:00 16.6 22 Nordeste 43 Nordeste 0 -- -- 62
2018-02-03 20:00:00 16.6 22 Nordeste 43 Nordeste 0 -- -- 59
2018-02-03 19:00:00 16.2 25 Nordeste 45 Nordeste 0 -- -- 64
2018-02-03 18:00:00 16.8 24 Nordeste 49 Nordeste 0 -- -- 59
2018-02-03 17:00:00 16.7 25 Nordeste 47 Nordeste 0 -- -- 66
2018-02-03 16:00:00 16.6 23 Nordeste 41 Nordeste 0.2 -- -- 67
2018-02-03 15:00:00 15.6 21 Nordeste 39 Norte 0.2 -- -- 74
2018-02-03 14:00:00 16 24 Nordeste 42 Nordeste 0 -- -- 66
2018-02-03 13:00:00 16.8 25 Nordeste 50 Nordeste 0.2 -- -- 63
2018-02-03 12:00:00 17 26 Nordeste 47 Nordeste 0 -- -- 63
2018-02-03 11:00:00 17.3 19 Nordeste 55 Norte 0 -- -- 63
2018-02-03 10:00:00 16.6 26 Nordeste 46 Nordeste 0 -- -- 62
2018-02-03 09:00:00 16.1 24 Nordeste 47 Nordeste 0 -- -- 62
2018-02-03 08:00:00 15.7 21 Nordeste 39 Nordeste 0 -- -- 68
2018-02-03 07:00:00 15.9 24 Nordeste 42 Nordeste 0 -- -- 65
2018-02-03 06:00:00 16 22 Nordeste 37 Nordeste 0 -- -- 70
2018-02-03 05:00:00 15.6 20 Nordeste 45 Nordeste 0 -- -- 68
2018-02-03 04:00:00 15.8 21 Nordeste 42 Nordeste 0 -- -- 66
2018-02-03 03:00:00 15.5 25 Nordeste 41 Nordeste 0.2 -- -- 72
2018-02-03 02:00:00 15.8 16 Nordeste 41 Este 0 -- -- 69
2018-02-03 01:00:00 15.1 21 Este 53 Nordeste 0 -- -- 74
2018-02-03 00:00:00 14.9 20 Este 54 Nordeste 0.2 -- -- 76
2018-02-02 23:00:00 15.5 17 Nordeste 43 Nordeste 0 -- -- 75
2018-02-02 22:00:00 16.4 24 Nordeste 40 Nordeste 0 -- -- 67
2018-02-02 21:00:00 16.7 22 Nordeste 38 Nordeste 0 -- -- 67
2018-02-02 20:00:00 15.7 14 Este 42 Norte 0 -- -- 72
2018-02-02 19:00:00 16.7 18 Nordeste 41 Nordeste 0 -- -- 64
2018-02-02 18:00:00 17.2 23 Nordeste 41 Nordeste 0 -- -- 65
2018-02-02 17:00:00 17.5 27 Nordeste 41 Nordeste 0 -- -- 63
2018-02-02 16:00:00 17.8 18 Nordeste 51 Nordeste 0 -- -- 66
2018-02-02 15:00:00 17.4 24 Nordeste 39 Norte 0 -- -- 69
2018-02-02 14:00:00 16.8 16 Nordeste 48 Nordeste 2 -- -- 79
2018-02-02 13:00:00 17.1 19 Nordeste 39 Nordeste 3.8 -- -- 74
2018-02-02 12:00:00 16 17 Nordeste 37 Este 0.6 -- -- 83
2018-02-02 11:00:00 16.1 22 Nordeste 54 Nordeste 0 -- -- 76
2018-02-02 10:00:00 15.9 28 Nordeste 47 Nordeste 0.2 -- -- 77
2018-02-02 09:00:00 16.3 14 Nordeste 34 Nordeste 0 -- -- 76
2018-02-02 08:00:00 16.5 18 Nordeste 31 Nordeste 0 -- -- 73
2018-02-02 07:00:00 16.2 14 Nordeste 27 Norte 0 -- -- 72
2018-02-02 06:00:00 16.4 15 Nordeste 37 Nordeste 0 -- -- 67
2018-02-02 05:00:00 16.6 21 Nordeste 35 Nordeste 0 -- -- 67
2018-02-02 04:00:00 16.6 19 Nordeste 38 Nordeste 0 -- -- 69
2018-02-02 03:00:00 16.8 23 Norte 39 Norte 0 -- -- 70
2018-02-02 02:00:00 16.7 21 Nordeste 38 Nordeste 0 -- -- 73
2018-02-02 01:00:00 16.7 20 Nordeste 35 Nordeste 0 -- -- 73
2018-02-02 00:00:00 16.5 20 Nordeste 34 Nordeste 0 -- -- 73
2018-02-01 23:00:00 16.7 20 Nordeste 37 Nordeste 0 -- -- 73
2018-02-01 22:00:00 16.6 24 Nordeste 40 Nordeste 0 -- -- 70
2018-02-01 21:00:00 16.3 19 Nordeste 46 Norte 1.8 -- -- 69
2018-02-01 20:00:00 16.3 14 Nordeste 37 Nordeste 1.2 -- -- 71
2018-02-01 19:00:00 16.8 15 Nordeste 39 Norte 0 -- -- 70
2018-02-01 18:00:00 17.4 18 Nordeste 45 Norte 0 -- -- 66
2018-02-01 17:00:00 17.9 21 Norte 39 Norte 0 -- -- 63
2018-02-01 16:00:00 15.9 15 Este 48 Este 0.4 -- -- 72
2018-02-01 15:00:00 18 23 Nordeste 36 Nordeste 0 -- -- 60
2018-02-01 14:00:00 17.7 20 Nordeste 35 Nordeste 0 -- -- 64
2018-02-01 13:00:00 17.2 16 Nordeste 38 Este 0.2 -- -- 71
2018-02-01 12:00:00 14.4 32 Nordeste 59 Nordeste 0.8 -- -- 73
2018-02-01 11:00:00 16.7 22 Nordeste 38 Nordeste 0 -- -- 67
2018-02-01 10:00:00 14.5 18 Este 51 Nordeste 2.2 -- -- 70
2018-02-01 09:00:00 16.3 16 Nordeste 33 Nordeste 0 -- -- 59
2018-02-01 08:00:00 16.2 15 Norte 35 Nordeste 0 -- -- 58
2018-02-01 07:00:00 16 19 Nordeste 33 Nordeste 0 -- -- 61
2018-02-01 06:00:00 15.9 18 Nordeste 40 Nordeste 0 -- -- 66
2018-02-01 05:00:00 16.3 24 Nordeste 37 Nordeste 0 -- -- 56
2018-02-01 04:00:00 16.1 18 Nordeste 41 Nordeste 0 -- -- 64
2018-02-01 03:00:00 16 18 Nordeste 36 Nordeste 0 -- -- 68
2018-02-01 02:00:00 16.1 16 Nordeste 37 Nordeste 0 -- -- 62
2018-02-01 01:00:00 16.2 22 Nordeste 33 Nordeste 0 -- -- 61
2018-02-01 00:00:00 16.6 20 Norte 36 Norte 0 -- -- 67
2018-01-31 23:00:00 16.7 15 Norte 30 Norte 0 -- -- 66
2018-01-31 22:00:00 16.7 14 Nordeste 28 Norte 0 -- -- 70
2018-01-31 21:00:00 16.2 6 Este 40 Norte 0 -- -- 75
2018-01-31 20:00:00 17.3 29 Norte 42 Norte 0 -- -- 76
2018-01-31 19:00:00 17.4 33 Norte 44 Norte 0 -- -- 77
2018-01-31 18:00:00 16.9 20 Noroeste 45 Norte 0.6 -- -- 80
2018-01-31 17:00:00 16.6 5 Este 48 Norte 0.4 -- -- 79
2018-01-31 16:00:00 18.2 22 Norte 32 Norte 0 -- -- 71
2018-01-31 15:00:00 17.1 19 Norte 38 Norte 0 -- -- 77
2018-01-31 14:00:00 17.7 17 Noroeste 37 Noroeste 0 -- -- 74
2018-01-31 13:00:00 17.4 19 Noroeste 29 Noroeste 2.6 -- -- 76
2018-01-31 12:00:00 17.2 8 Oeste 37 Noroeste 0.4 -- -- 70
2018-01-31 11:00:00 17.2 17 Noroeste 28 Noroeste 0 -- -- 67
2018-01-31 10:00:00 16.6 4 Este 11 Sur 0 -- -- 63
2018-01-31 09:00:00 15.5 4 Este 19 Norte 0 -- -- 65
2018-01-31 08:00:00 16.3 14 Norte 21 Este 0 -- -- 65
2018-01-31 07:00:00 14.8 8 Este 17 Este 0 -- -- 68
2018-01-31 06:00:00 14.2 10 Este 19 Este 0 -- -- 70
2018-01-31 05:00:00 14.4 10 Este 20 Este -- -- -- 67
2018-01-31 04:00:00 14.2 12 Este 21 Este 0 -- -- 68
2018-01-31 03:00:00 14.6 10 Este 20 Este 0 -- -- 65
2018-01-31 02:00:00 14.3 10 Este 17 Este 0 -- -- 65
2018-01-31 01:00:00 14.2 10 Nordeste 17 Nordeste 0 -- -- 66
2018-01-31 00:00:00 14.5 10 Nordeste 21 Nordeste 0 -- -- 67
2018-01-30 23:00:00 15.1 13 Nordeste 27 Nordeste 0 -- -- 66
2018-01-30 22:00:00 15.4 16 Nordeste 30 Nordeste 0 -- -- 64
2018-01-30 21:00:00 15.6 15 Nordeste 23 Nordeste 0 -- -- 66
2018-01-30 20:00:00 15.4 11 Este 21 Este 0 -- -- 67
2018-01-30 19:00:00 15.9 6 Nordeste 21 Este 0 -- -- 61
2018-01-30 18:00:00 16.4 9 Nordeste 23 Nordeste 0 -- -- 59
2018-01-30 17:00:00 17 14 Nordeste 29 Nordeste 0 -- -- 57
2018-01-30 16:00:00 17 16 Nordeste 30 Nordeste 0.2 -- -- 58
2018-01-30 15:00:00 16.7 18 Nordeste 30 Nordeste 0 -- -- 60
2018-01-30 14:00:00 15.3 15 Nordeste 33 Nordeste 0 -- -- 74
2018-01-30 13:00:00 15.8 4 Noroeste 12 Sudeste 0 -- -- 71
2018-01-30 12:00:00 13.4 5 Sudeste 26 Nordeste 5.8 -- -- 82
2018-01-30 11:00:00 13.7 15 Nordeste 26 Nordeste 2.2 -- -- 82
2018-01-30 10:00:00 16.2 15 Oeste 26 Noroeste 0 -- -- 70
2018-01-30 09:00:00 16.3 16 Sur 23 Sur 0 -- -- 62
2018-01-30 08:00:00 14.8 9 Este 14 Este 0 -- -- 65
2018-01-30 07:00:00 14.6 7 Nordeste 14 Este 0 -- -- 67
2018-01-30 06:00:00 14.1 6 Nordeste 13 Nordeste 0 -- -- 71
2018-01-30 05:00:00 13.9 7 Nordeste 24 Norte 0 -- -- 71
2018-01-30 04:00:00 15.3 11 Norte 21 Noroeste 0 -- -- 66
2018-01-30 03:00:00 14 10 Este 18 Este 0 -- -- 69
2018-01-30 02:00:00 13.6 10 Este 21 Nordeste 0 -- -- 72
2018-01-30 01:00:00 15.4 27 Norte 35 Norte 0 -- -- 67
2018-01-30 00:00:00 14 10 Este 19 Nordeste 0 -- -- 66
2018-01-29 23:00:00 14.1 12 Este 22 Nordeste 0 -- -- 63
2018-01-29 22:00:00 13.7 9 Este 15 Este 0 -- -- 65
2018-01-29 21:00:00 13.6 8 Este 19 Nordeste 0 -- -- 64
2018-01-29 20:00:00 14 12 Este 23 Este 0 -- -- 65
2018-01-29 19:00:00 13.9 12 Este 31 Nordeste 0 -- -- 63
2018-01-29 18:00:00 13 29 Norte 49 Norte 1.2 -- -- 71
2018-01-29 17:00:00 17 10 Nordeste 29 Norte 0 -- -- 60
2018-01-29 16:00:00 16.3 17 Norte 41 Norte 0 -- -- 63
2018-01-29 15:00:00 16.7 14 Noroeste 33 Noroeste 0 -- -- 69
2018-01-29 14:00:00 16.9 17 Norte 31 Noroeste 0 -- -- 66
2018-01-29 13:00:00 16.3 19 Norte 30 Noroeste 0 -- -- 70
2018-01-29 12:00:00 16 16 Noroeste 27 Noroeste 0 -- -- 69
2018-01-29 11:00:00 14 5 Nordeste 55 Norte 2.4 -- -- 77
2018-01-29 10:00:00 16.4 36 Norte 44 Noroeste 0 -- -- 65
2018-01-29 09:00:00 16.8 24 Norte 33 Norte 0 -- -- 65
2018-01-29 08:00:00 16.6 26 Norte 39 Norte 0 -- -- 66
2018-01-29 07:00:00 15.3 7 Nordeste 17 Norte 0 -- -- 69
2018-01-29 06:00:00 15 7 Este 30 Norte 0 -- -- 69
2018-01-29 05:00:00 15.3 9 Nordeste 25 Este 0 -- -- 68
2018-01-29 04:00:00 14.7 11 Este 28 Este 0 -- -- 60
2018-01-29 03:00:00 14.6 10 Este 26 Este 0 -- -- 64
2018-01-29 02:00:00 14.9 12 Este 23 Nordeste 0 -- -- 62
2018-01-29 01:00:00 15 9 Este 23 Nordeste 0 -- -- 58
2018-01-29 00:00:00 15 15 Nordeste 27 Nordeste 0 -- -- 60
2018-01-28 23:00:00 15.3 12 Nordeste 22 Este 0 -- -- 58
2018-01-28 22:00:00 15.5 15 Nordeste 29 Nordeste 0 -- -- 56
2018-01-28 21:00:00 15.4 11 Nordeste 28 Nordeste 0 -- -- 58
2018-01-28 20:00:00 15.9 19 Nordeste 36 Nordeste 0 -- -- 55
2018-01-28 19:00:00 16.1 14 Nordeste 33 Nordeste 0 -- -- 60
2018-01-28 18:00:00 16.4 22 Nordeste 43 Nordeste 0 -- -- 51
2018-01-28 17:00:00 17.3 18 Nordeste 47 Nordeste 0 -- -- 51
2018-01-28 16:00:00 17.6 24 Nordeste 46 Nordeste 0 -- -- 48
2018-01-28 15:00:00 17.3 26 Nordeste 45 Nordeste 0 -- -- 56
2018-01-28 14:00:00 16.7 27 Nordeste 45 Nordeste 0 -- -- 61
2018-01-28 13:00:00 16.9 17 Nordeste 42 Este 0 -- -- 69
2018-01-28 12:00:00 14.1 25 Nordeste 46 Nordeste 1.6 -- -- 84
2018-01-28 11:00:00 17.4 22 Nordeste 42 Nordeste 0 -- -- 58
2018-01-28 10:00:00 16.7 20 Nordeste 45 Este 0 -- -- 58
2018-01-28 09:00:00 16.3 25 Nordeste 47 Nordeste 0 -- -- 54
2018-01-28 08:00:00 16.3 21 Nordeste 43 Nordeste 0 -- -- 60
2018-01-28 07:00:00 16.1 23 Nordeste 42 Nordeste 0 -- -- 61
2018-01-28 06:00:00 15.7 22 Nordeste 45 Nordeste 0 -- -- 67
2018-01-28 05:00:00 16 20 Nordeste 40 Nordeste 0 -- -- 62
2018-01-28 04:00:00 15.6 18 Nordeste 55 Nordeste 0 -- -- 65
2018-01-28 03:00:00 15.9 25 Nordeste 46 Nordeste 0.6 -- -- 67
2018-01-28 02:00:00 16 23 Nordeste 38 Nordeste 0 -- -- 66
2018-01-28 01:00:00 16.4 18 Nordeste 42 Nordeste 0 -- -- 62
2018-01-28 00:00:00 16.7 24 Nordeste 45 Nordeste 0 -- -- 59
2018-01-27 23:00:00 16.7 25 Nordeste 47 Nordeste 0 -- -- 62
2018-01-27 22:00:00 16.8 23 Nordeste 49 Este 0 -- -- 59
2018-01-27 21:00:00 16.8 27 Nordeste 49 Nordeste 0 -- -- 61
2018-01-27 20:00:00 16.6 22 Nordeste 50 Este 0 -- -- 70
2018-01-27 19:00:00 17.1 27 Nordeste 44 Nordeste 0 -- -- 60
2018-01-27 18:00:00 17.2 22 Nordeste 41 Nordeste 0 -- -- 60
2018-01-27 17:00:00 17.2 22 Nordeste 45 Nordeste 0 -- -- 63
2018-01-27 16:00:00 16.7 24 Nordeste 54 Nordeste 0 -- -- 70
2018-01-27 15:00:00 18 27 Nordeste 54 Nordeste 0 -- -- 53
2018-01-27 14:00:00 17.3 27 Nordeste 55 Este 0 -- -- 62
2018-01-27 13:00:00 17.5 31 Nordeste 59 Norte 0 -- -- 56
2018-01-27 12:00:00 17 34 Nordeste 55 Nordeste 0 -- -- 62
2018-01-27 11:00:00 17.1 31 Nordeste 48 Nordeste 0 -- -- 56
2018-01-27 10:00:00 16.6 26 Nordeste 52 Nordeste 0 -- -- 56
2018-01-27 09:00:00 16.5 32 Nordeste 55 Nordeste 0 -- -- 53
2018-01-27 08:00:00 16.4 23 Nordeste 56 Nordeste 0 -- -- 55
2018-01-27 07:00:00 16.7 27 Nordeste 50 Nordeste 0 -- -- 53
2018-01-27 06:00:00 16.4 29 Nordeste 53 Nordeste 0 -- -- 53
2018-01-27 05:00:00 16.1 28 Nordeste 51 Nordeste 0 -- -- 63
2018-01-27 04:00:00 16.4 24 Nordeste 48 Nordeste 0 -- -- 55
2018-01-27 03:00:00 16.1 28 Nordeste 53 Nordeste 0 -- -- 64
2018-01-27 02:00:00 14.8 28 Nordeste 50 Nordeste 0 -- -- 72
2018-01-27 01:00:00 16.3 24 Nordeste 59 Nordeste 0 -- -- 56
2018-01-27 00:00:00 16.6 26 Nordeste 46 Nordeste 0 -- -- 61
2018-01-26 23:00:00 16.6 28 Nordeste 47 Nordeste 0 -- -- 65
2018-01-26 22:00:00 16.3 23 Nordeste 46 Nordeste 0 -- -- 65
2018-01-26 21:00:00 16.5 26 Nordeste 46 Nordeste 0.4 -- -- 64
2018-01-26 20:00:00 15.9 19 Nordeste 55 Nordeste 0 -- -- 73
2018-01-26 19:00:00 17 25 Nordeste 47 Nordeste 0 -- -- 61
2018-01-26 18:00:00 16.9 29 Nordeste 47 Nordeste 0 -- -- 64
2018-01-26 17:00:00 17 24 Nordeste 54 Nordeste 0 -- -- 69
2018-01-26 16:00:00 18.7 28 Nordeste 46 Nordeste 0 -- -- 63
2018-01-26 15:00:00 18.4 22 Nordeste 44 Nordeste 0 -- -- 54
2018-01-26 14:00:00 18.3 26 Nordeste 49 Nordeste 0 -- -- 65
2018-01-26 13:00:00 17.9 26 Nordeste 48 Nordeste 0 -- -- 68
2018-01-26 12:00:00 16.7 22 Nordeste 50 Nordeste 0.2 -- -- 77
2018-01-26 11:00:00 16.3 26 Nordeste 53 Nordeste 0.2 -- -- 82
2018-01-26 10:00:00 17.4 22 Nordeste 44 Nordeste 0.4 -- -- 79
2018-01-26 09:00:00 16.1 21 Nordeste 36 Nordeste 0 -- -- 80
2018-01-26 08:00:00 18.3 15 Este 53 Este 0 -- -- 58
2018-01-26 07:00:00 17.6 19 Este 46 Este 0 -- -- 57
2018-01-26 06:00:00 17.2 23 Nordeste 45 Nordeste 0 -- -- 69
2018-01-26 05:00:00 17.4 27 Nordeste 51 Nordeste 0 -- -- 70
2018-01-26 04:00:00 17.5 19 Nordeste 34 Este 0 -- -- 67
2018-01-26 03:00:00 17.2 15 Este 38 Nordeste 0 -- -- 61
2018-01-26 02:00:00 17.3 17 Nordeste 35 Nordeste 0 -- -- 60
2018-01-26 01:00:00 17.3 18 Nordeste 31 Nordeste 0 -- -- 64
2018-01-26 00:00:00 17 16 Nordeste 32 Nordeste 0 -- -- 65
2018-01-25 23:00:00 16.8 19 Nordeste 36 Nordeste 0 -- -- 63
2018-01-25 22:00:00 16.9 20 Nordeste 39 Nordeste 0 -- -- 65
2018-01-25 21:00:00 17.3 19 Nordeste 39 Este 0 -- -- 61
2018-01-25 20:00:00 17.3 21 Nordeste 47 Norte 0 -- -- 64
2018-01-25 19:00:00 17.4 25 Nordeste 47 Nordeste 0 -- -- 65
2018-01-25 18:00:00 18.1 28 Nordeste 53 Nordeste 0 -- -- 61
2018-01-25 17:00:00 18.7 30 Nordeste 59 Nordeste 0 -- -- 63
2018-01-25 16:00:00 19.2 28 Nordeste 52 Nordeste 0 -- -- 60
2018-01-25 15:00:00 19.3 27 Nordeste 53 Nordeste 0 -- -- 63
2018-01-25 14:00:00 19.1 31 Nordeste 50 Nordeste 0 -- -- 64
2018-01-25 13:00:00 19.2 30 Nordeste 52 Nordeste 0 -- -- 60
2018-01-25 12:00:00 18.8 33 Nordeste 58 Nordeste 0 -- -- 63
2018-01-25 11:00:00 18.4 31 Nordeste 52 Nordeste 0 -- -- 61
2018-01-25 10:00:00 17.9 26 Nordeste 48 Nordeste 0 -- -- 63
2018-01-25 09:00:00 17 23 Nordeste 40 Nordeste 0 -- -- 65
2018-01-25 08:00:00 16.4 23 Nordeste 49 Nordeste 0 -- -- 69
2018-01-25 07:00:00 16.4 25 Nordeste 49 Este 0 -- -- 69
2018-01-25 06:00:00 16.6 21 Nordeste 60 Este 0 -- -- 69
2018-01-25 05:00:00 16.5 24 Nordeste 49 Este 0 -- -- 69
2018-01-25 04:00:00 16.3 24 Nordeste 55 Nordeste 0 -- -- 71
2018-01-25 03:00:00 16.3 23 Nordeste 48 Nordeste 0 -- -- 71
2018-01-25 02:00:00 16.6 19 Nordeste 41 Nordeste 0 -- -- 72
2018-01-25 01:00:00 16.8 13 Nordeste 50 Este 0 -- -- 69
2018-01-25 00:00:00 16.9 19 Nordeste 49 Nordeste 0 -- -- 70
2018-01-24 23:00:00 17.1 28 Nordeste 64 Nordeste 0 -- -- 71
2018-01-24 22:00:00 17 24 Nordeste 46 Nordeste 0 -- -- 70
2018-01-24 21:00:00 17.1 24 Nordeste 51 Nordeste 0 -- -- 70
2018-01-24 20:00:00 17.2 22 Nordeste 49 Este 0 -- -- 71
2018-01-24 19:00:00 17.4 22 Nordeste 43 Este 0 -- -- 71
2018-01-24 18:00:00 18.6 21 Nordeste 45 Nordeste 0 -- -- 67
2018-01-24 17:00:00 19.2 19 Este 45 Nordeste 0 -- -- 66
2018-01-24 16:00:00 19.7 22 Nordeste 42 Nordeste 0 -- -- 65
2018-01-24 15:00:00 20.5 18 Nordeste 39 Nordeste 0 -- -- 61
2018-01-24 14:00:00 20 18 Nordeste 37 Este 0 -- -- 63
2018-01-24 13:00:00 19.7 13 Este 30 Nordeste 0 -- -- 64
2018-01-24 12:00:00 20.3 6 Sudoeste 10 Sudoeste 0 -- -- 67
2018-01-24 11:00:00 -- -- -- -- -- -- -- -- --
2018-01-24 10:00:00 19.5 9 Sur 35 Nordeste 0 -- -- 58
2018-01-24 09:00:00 17.5 15 Este 49 Este 0 -- -- 65
2018-01-24 08:00:00 16.6 17 Este 50 Nordeste 0 -- -- 66
2018-01-24 07:00:00 16.5 17 Este 54 Este 0 -- -- 69
2018-01-24 06:00:00 16.6 25 Nordeste 66 Nordeste 0 -- -- 69
2018-01-24 05:00:00 16.9 30 Nordeste 60 Nordeste 0 -- -- 68
2018-01-24 04:00:00 16.9 32 Nordeste 57 Nordeste 0 -- -- 69
2018-01-24 03:00:00 16.8 24 Nordeste 51 Este 0 -- -- 70
2018-01-24 02:00:00 17.1 21 Este 49 Nordeste 0 -- -- 67
2018-01-24 01:00:00 17.2 16 Nordeste 57 Nordeste 0 -- -- 66
2018-01-24 00:00:00 17.1 27 Norte 42 Norte 0 -- -- 72
2018-01-23 23:00:00 17.3 24 Norte 45 Norte 0 -- -- 73
2018-01-23 22:00:00 17.3 22 Norte 48 Nordeste 0 -- -- 73
2018-01-23 21:00:00 17.3 18 Nordeste 46 Nordeste 0 -- -- 72
2018-01-23 20:00:00 17.5 22 Este 40 Nordeste 0 -- -- 72
2018-01-23 19:00:00 17.8 18 Nordeste 42 Nordeste 0 -- -- 75
2018-01-23 18:00:00 18.9 18 Nordeste 32 Nordeste 0 -- -- 71
2018-01-23 17:00:00 21.2 8 Nordeste 21 Este 0 -- -- 66
2018-01-23 16:00:00 21.3 8 Sur 22 Sudeste 0 -- -- 66
2018-01-23 15:00:00 20.9 6 Sur 12 Sudeste 0 -- -- 66
2018-01-23 14:00:00 20.4 7 Sudoeste 11 Sudoeste 0 -- -- 64
2018-01-23 13:00:00 19.9 7 Sudoeste 13 Sudoeste 0 -- -- 65
2018-01-23 12:00:00 19.9 8 Sudoeste 13 Sur 0 -- -- 59
2018-01-23 11:00:00 20.4 4 Sudeste 30 Sudeste 0 -- -- 50
2018-01-23 10:00:00 19.8 6 Sur 29 Este 0 -- -- 54
2018-01-23 09:00:00 17.9 13 Sudeste 43 Este 0 -- -- 54
2018-01-23 08:00:00 16.9 18 Este 44 Este 0 -- -- 66
2018-01-23 07:00:00 16.9 15 Nordeste 44 Este 0 -- -- 65
2018-01-23 06:00:00 17.2 22 Nordeste 44 Nordeste 0 -- -- 66
2018-01-23 05:00:00 16.9 19 Nordeste 45 Nordeste 0 -- -- 68
2018-01-23 04:00:00 17.2 23 Nordeste 37 Nordeste 0 -- -- 63
2018-01-23 03:00:00 17.1 20 Nordeste 37 Nordeste 0 -- -- 65
2018-01-23 02:00:00 17.2 25 Nordeste 40 Nordeste 0 -- -- 69
2018-01-23 01:00:00 17.1 18 Nordeste 36 Nordeste 0 -- -- 71
2018-01-23 00:00:00 17.2 18 Nordeste 33 Nordeste 0 -- -- 66
2018-01-22 23:00:00 17 17 Nordeste 41 Nordeste 0 -- -- 68
2018-01-22 22:00:00 17.3 27 Nordeste 40 Nordeste 0 -- -- 69
2018-01-22 21:00:00 17.5 20 Nordeste 39 Nordeste 0 -- -- 68
2018-01-22 20:00:00 17.6 19 Nordeste 44 Nordeste 0 -- -- 69
2018-01-22 19:00:00 17.9 18 Nordeste 40 Nordeste 0 -- -- 70
2018-01-22 18:00:00 18.9 26 Nordeste 43 Nordeste 0 -- -- 71
2018-01-22 17:00:00 19.8 23 Nordeste 44 Nordeste 0 -- -- 69
2018-01-22 16:00:00 20.9 18 Nordeste 43 Este 0 -- -- 66
2018-01-22 15:00:00 21 17 Nordeste 31 Nordeste 0 -- -- 66
2018-01-22 14:00:00 21.9 8 Sur 12 Sur 0 -- -- 54
2018-01-22 13:00:00 21.5 8 Sur 12 Sudeste 0 -- -- 41
2018-01-22 12:00:00 20.9 8 Sur 10 Sur 0 -- -- 47
2018-01-22 11:00:00 20.6 5 Sur 22 Este 0 -- -- 52
2018-01-22 10:00:00 20.4 9 Sudeste 21 Sudeste 0 -- -- 37
2018-01-22 09:00:00 18.6 10 Este 18 Sudeste 0 -- -- 28
2018-01-22 08:00:00 16.2 3 Sudeste 14 Este 0 -- -- 32
2018-01-22 07:00:00 17.2 9 Sudeste 16 Este 0 -- -- 34
2018-01-22 06:00:00 16 3 Este 25 Sudeste 0 -- -- 43
2018-01-22 05:00:00 16.3 14 Sudeste 24 Este 0 -- -- 56
2018-01-22 04:00:00 16.5 15 Sudeste 29 Sudeste 0 -- -- 60
2018-01-22 03:00:00 16.3 13 Sudeste 24 Sur 0 -- -- 65
2018-01-22 02:00:00 16.6 9 Sudeste 24 Sudeste 0 -- -- 69
2018-01-22 01:00:00 16.9 10 Este 38 Nordeste 0 -- -- 72
2018-01-22 00:00:00 17 11 Este 34 Este 0 -- -- 75